Time;durP1;ratioP1;P1;durP2;ratioP2;P2;SDS_P1;SDS_P2;PMS_P1;PMS_P2;Temp;Humidity;BMP_temperature;BMP_pressure;BME280_temperature;BME280_humidity;BME280_pressure;Samples;Min_cycle;Max_cycle;Signal;HPM_P1;HPM_P2
2021/01/09 00:02:24;;;;;;;194.50;106.63;;;;;;;;;;5018168;28;20105;-49
2021/01/09 00:04:50;;;;;;;183.65;102.50;;;;;;;;;;5031729;28;20491;-48
2021/01/09 00:07:16;;;;;;;179.25;98.97;;;;;;;;;;5031800;28;20108;-48
2021/01/09 00:09:42;;;;;;;163.10;91.95;;;;;;;;;;5030894;28;20029;-49
2021/01/09 00:12:12;;;;;;;141.63;81.18;;;;;;;;;;5031799;28;20021;-49
2021/01/09 00:14:38;;;;;;;128.90;70.95;;;;;;;;;;5031611;28;20096;-48
2021/01/09 00:17:05;;;;;;;176.07;98.40;;;;;;;;;;5031727;28;20030;-49
2021/01/09 00:19:31;;;;;;;163.50;90.47;;;;;;;;;;5025495;28;20030;-50
2021/01/09 00:22:00;;;;;;;150.27;85.47;;;;;;;;;;5015086;28;20603;-47
2021/01/09 00:24:26;;;;;;;135.45;77.05;;;;;;;;;;5011873;28;20478;-49
2021/01/09 00:26:52;;;;;;;134.30;75.97;;;;;;;;;;5029859;28;20537;-48
2021/01/09 00:29:18;;;;;;;126.00;71.07;;;;;;;;;;5026793;28;20418;-48
2021/01/09 00:31:44;;;;;;;128.05;71.90;;;;;;;;;;5020320;28;20390;-50
2021/01/09 00:34:10;;;;;;;128.57;74.70;;;;;;;;;;5035250;28;20495;-48
2021/01/09 00:36:36;;;;;;;119.43;68.45;;;;;;;;;;5035251;28;20612;-49
2021/01/09 00:39:05;;;;;;;117.03;62.65;;;;;;;;;;5032907;28;20517;-48
2021/01/09 00:41:32;;;;;;;88.35;50.72;;;;;;;;;;5035679;28;20117;-50
2021/01/09 00:43:59;;;;;;;73.80;43.83;;;;;;;;;;5035719;28;20033;-49
2021/01/09 00:46:26;;;;;;;90.85;49.45;;;;;;;;;;5035714;28;20104;-50
2021/01/09 00:48:52;;;;;;;66.30;38.80;;;;;;;;;;5034969;28;20104;-48
2021/01/09 00:51:18;;;;;;;73.68;40.55;;;;;;;;;;5022324;28;20033;-48
2021/01/09 00:53:44;;;;;;;58.92;33.92;;;;;;;;;;5030568;28;20030;-47
2021/01/09 00:56:14;;;;;;;51.05;28.55;;;;;;;;;;5034555;28;20036;-48
2021/01/09 00:58:40;;;;;;;44.83;25.83;;;;;;;;;;5023089;28;20116;-49
2021/01/09 01:01:06;;;;;;;41.72;24.08;;;;;;;;;;5033556;28;20577;-48
2021/01/09 01:03:33;;;;;;;40.60;24.63;;;;;;;;;;5035069;28;20076;-50
2021/01/09 01:05:59;;;;;;;39.70;24.38;;;;;;;;;;5035313;28;20096;-48
2021/01/09 01:08:25;;;;;;;46.72;27.77;;;;;;;;;;5034781;28;20051;-49
2021/01/09 01:10:54;;;;;;;48.08;29.00;;;;;;;;;;5034383;28;20381;-50
2021/01/09 01:13:20;;;;;;;50.67;28.60;;;;;;;;;;5033737;28;20034;-49
2021/01/09 01:15:46;;;;;;;54.28;31.48;;;;;;;;;;5035342;28;20026;-49
2021/01/09 01:18:12;;;;;;;59.92;33.40;;;;;;;;;;5030607;28;20053;-50
2021/01/09 01:20:38;;;;;;;65.35;38.45;;;;;;;;;;5031555;28;20022;-48
2021/01/09 01:23:04;;;;;;;72.85;43.28;;;;;;;;;;5035183;28;20037;-49
2021/01/09 01:25:30;;;;;;;83.68;47.03;;;;;;;;;;5033928;28;20021;-50
2021/01/09 01:27:57;;;;;;;83.22;46.92;;;;;;;;;;5032598;28;20370;-48
2021/01/09 01:30:23;;;;;;;94.53;51.45;;;;;;;;;;5034210;28;20060;-49
2021/01/09 01:32:49;;;;;;;116.32;59.83;;;;;;;;;;5034949;28;20026;-49
2021/01/09 01:35:15;;;;;;;119.05;64.80;;;;;;;;;;5034911;28;20105;-50
2021/01/09 01:37:41;;;;;;;111.18;58.20;;;;;;;;;;5034778;28;20079;-49
2021/01/09 01:40:07;;;;;;;97.63;53.60;;;;;;;;;;5034718;28;20022;-49
2021/01/09 01:42:33;;;;;;;95.38;52.97;;;;;;;;;;5034641;28;20075;-49
2021/01/09 01:45:00;;;;;;;98.97;55.33;;;;;;;;;;5034939;28;20029;-50
2021/01/09 01:47:26;;;;;;;99.32;54.45;;;;;;;;;;5034628;28;20816;-48
2021/01/09 01:49:52;;;;;;;89.28;49.40;;;;;;;;;;5034859;28;20021;-50
2021/01/09 01:52:18;;;;;;;79.07;46.47;;;;;;;;;;5027621;28;20038;-49
2021/01/09 01:54:44;;;;;;;71.28;40.92;;;;;;;;;;5032936;28;20154;-49
2021/01/09 01:57:12;;;;;;;58.00;35.72;;;;;;;;;;5033094;28;21223;-50
2021/01/09 01:59:38;;;;;;;55.30;34.50;;;;;;;;;;5031494;28;20023;-49
2021/01/09 02:02:05;;;;;;;52.08;32.80;;;;;;;;;;5032040;28;20378;-50
2021/01/09 02:04:31;;;;;;;60.75;37.58;;;;;;;;;;5014960;28;20037;-50
2021/01/09 02:06:59;;;;;;;61.15;37.35;;;;;;;;;;5016193;28;20149;-50
2021/01/09 02:09:27;;;;;;;57.47;36.13;;;;;;;;;;5034461;28;20025;-50
2021/01/09 02:11:53;;;;;;;60.40;36.70;;;;;;;;;;5034339;28;20021;-50
2021/01/09 02:14:27;;;;;;;62.90;38.22;;;;;;;;;;5034605;28;20033;-50
2021/01/09 02:16:53;;;;;;;65.53;38.45;;;;;;;;;;5034165;28;20068;-49
2021/01/09 02:19:20;;;;;;;68.38;40.10;;;;;;;;;;5022851;28;20477;-50
2021/01/09 02:21:46;;;;;;;62.30;36.35;;;;;;;;;;5034242;28;20022;-50
2021/01/09 02:24:20;;;;;;;60.63;36.42;;;;;;;;;;5032525;28;20047;-49
2021/01/09 02:26:50;;;;;;;58.95;35.38;;;;;;;;;;5034005;28;20026;-49
2021/01/09 02:29:16;;;;;;;79.78;46.45;;;;;;;;;;5025673;28;20418;-47
2021/01/09 02:32:02;;;;;;;73.35;41.58;;;;;;;;;;5018772;28;20083;-48
2021/01/09 02:34:30;;;;;;;69.65;40.90;;;;;;;;;;5015847;28;20013;-48
2021/01/09 02:36:58;;;;;;;70.93;42.30;;;;;;;;;;5023347;28;20079;-49
2021/01/09 02:39:25;;;;;;;73.35;42.25;;;;;;;;;;5033659;28;20052;-49
2021/01/09 02:41:52;;;;;;;70.28;41.88;;;;;;;;;;5033262;28;20120;-49
2021/01/09 02:44:18;;;;;;;76.60;43.78;;;;;;;;;;5033310;28;20025;-49
2021/01/09 02:46:44;;;;;;;162.23;76.80;;;;;;;;;;5033347;28;20375;-50
2021/01/09 02:49:10;;;;;;;124.80;61.08;;;;;;;;;;5032615;28;20025;-49
2021/01/09 02:51:36;;;;;;;69.20;39.08;;;;;;;;;;5033147;28;20026;-49
2021/01/09 02:54:02;;;;;;;68.13;39.88;;;;;;;;;;5032460;28;20029;-49
2021/01/09 02:56:28;;;;;;;71.18;41.40;;;;;;;;;;5033262;28;20462;-50
2021/01/09 02:58:54;;;;;;;69.22;39.35;;;;;;;;;;5033175;28;20037;-50
2021/01/09 03:01:20;;;;;;;64.22;37.67;;;;;;;;;;5033297;28;20018;-50
2021/01/09 03:03:46;;;;;;;66.97;39.67;;;;;;;;;;5033342;28;20023;-50
2021/01/09 03:06:12;;;;;;;61.58;36.13;;;;;;;;;;5033354;28;20025;-50
2021/01/09 03:08:39;;;;;;;65.40;37.22;;;;;;;;;;5031634;28;20474;-49
2021/01/09 03:11:05;;;;;;;63.70;36.58;;;;;;;;;;5037280;28;20029;-50
2021/01/09 03:13:31;;;;;;;59.92;35.67;;;;;;;;;;5031990;28;20057;-49
2021/01/09 03:15:57;;;;;;;55.63;33.45;;;;;;;;;;5032788;28;20017;-50
2021/01/09 03:18:23;;;;;;;51.47;31.65;;;;;;;;;;5033081;28;20033;-50
2021/01/09 03:20:49;;;;;;;61.22;35.35;;;;;;;;;;5032893;28;20018;-49
2021/01/09 03:23:15;;;;;;;58.38;36.50;;;;;;;;;;5033161;28;20029;-49
2021/01/09 03:25:41;;;;;;;59.15;34.47;;;;;;;;;;5032706;28;20041;-48
2021/01/09 03:28:07;;;;;;;56.47;33.75;;;;;;;;;;5032768;28;20053;-50
2021/01/09 03:30:33;;;;;;;62.05;36.20;;;;;;;;;;5032612;28;20021;-50
2021/01/09 03:32:59;;;;;;;54.70;32.72;;;;;;;;;;5033193;28;20053;-49
2021/01/09 03:35:26;;;;;;;55.50;33.53;;;;;;;;;;5032801;28;20025;-49
2021/01/09 03:37:52;;;;;;;63.42;35.70;;;;;;;;;;5032714;28;20029;-50
2021/01/09 03:40:18;;;;;;;58.88;32.58;;;;;;;;;;5032420;28;20025;-49
2021/01/09 03:42:44;;;;;;;54.42;32.85;;;;;;;;;;5032503;28;20017;-50
2021/01/09 03:45:11;;;;;;;54.95;31.25;;;;;;;;;;5032732;28;20029;-50
2021/01/09 03:47:37;;;;;;;51.05;28.98;;;;;;;;;;5029520;28;20084;-49
2021/01/09 03:50:04;;;;;;;46.88;28.05;;;;;;;;;;5032517;28;20022;-49
2021/01/09 03:52:30;;;;;;;68.53;34.60;;;;;;;;;;5032276;28;20029;-49
2021/01/09 03:54:56;;;;;;;54.08;28.33;;;;;;;;;;5032372;28;20021;-49
2021/01/09 03:57:22;;;;;;;56.33;30.00;;;;;;;;;;5032237;28;20056;-50
2021/01/09 03:59:49;;;;;;;67.55;35.78;;;;;;;;;;5032007;28;20032;-50
2021/01/09 04:02:15;;;;;;;67.97;35.33;;;;;;;;;;5032411;28;20473;-50
2021/01/09 04:04:41;;;;;;;61.70;32.53;;;;;;;;;;5032089;28;20036;-50
2021/01/09 04:07:07;;;;;;;60.42;31.88;;;;;;;;;;5031093;28;20060;-48
2021/01/09 04:09:33;;;;;;;57.13;31.05;;;;;;;;;;5030886;28;20044;-50
2021/01/09 04:11:59;;;;;;;51.15;27.75;;;;;;;;;;5031922;28;20527;-49
2021/01/09 04:14:25;;;;;;;49.08;28.55;;;;;;;;;;5032042;28;20026;-49
2021/01/09 04:16:51;;;;;;;50.53;27.88;;;;;;;;;;5031794;28;20025;-50
2021/01/09 04:19:17;;;;;;;48.47;27.17;;;;;;;;;;5031863;28;20060;-50
2021/01/09 04:21:47;;;;;;;43.03;25.25;;;;;;;;;;5031858;28;20053;-50
2021/01/09 04:24:13;;;;;;;41.88;24.35;;;;;;;;;;5031595;28;20043;-50
2021/01/09 04:26:40;;;;;;;37.70;23.17;;;;;;;;;;5031795;28;20489;-50
2021/01/09 04:29:06;;;;;;;39.63;23.77;;;;;;;;;;5031315;28;20191;-49
2021/01/09 04:31:32;;;;;;;44.10;25.58;;;;;;;;;;5031737;28;20032;-50
2021/01/09 04:33:58;;;;;;;69.93;39.92;;;;;;;;;;5031601;28;20500;-50
2021/01/09 04:36:24;;;;;;;50.65;30.02;;;;;;;;;;5031035;28;20037;-49
2021/01/09 04:38:50;;;;;;;41.08;23.70;;;;;;;;;;5031768;28;20033;-49
2021/01/09 04:41:20;;;;;;;42.38;24.05;;;;;;;;;;5030371;28;20040;-49
2021/01/09 04:43:46;;;;;;;72.75;42.80;;;;;;;;;;5031803;28;20091;-49
2021/01/09 04:46:14;;;;;;;46.53;27.52;;;;;;;;;;5031599;28;20022;-50
2021/01/09 04:48:40;;;;;;;45.80;26.13;;;;;;;;;;5031826;28;20477;-50
2021/01/09 04:51:06;;;;;;;43.55;26.10;;;;;;;;;;5030286;28;20029;-50
2021/01/09 04:53:35;;;;;;;47.63;28.77;;;;;;;;;;5031898;28;20378;-49
2021/01/09 04:56:01;;;;;;;64.85;35.15;;;;;;;;;;5031456;28;20026;-49
2021/01/09 04:58:27;;;;;;;63.38;33.72;;;;;;;;;;5031511;28;20064;-49
2021/01/09 05:00:55;;;;;;;50.63;27.48;;;;;;;;;;5030383;28;20462;-50
2021/01/09 05:03:21;;;;;;;77.28;39.95;;;;;;;;;;5031790;28;20025;-50
2021/01/09 05:05:48;;;;;;;76.30;39.63;;;;;;;;;;5030954;28;20017;-50
2021/01/09 05:08:14;;;;;;;71.32;39.65;;;;;;;;;;5031883;28;20034;-49
2021/01/09 05:10:40;;;;;;;74.85;42.60;;;;;;;;;;5031499;28;20096;-50
2021/01/09 05:13:07;;;;;;;66.70;36.92;;;;;;;;;;5031639;28;20105;-49
2021/01/09 05:15:36;;;;;;;65.93;36.45;;;;;;;;;;5031348;28;20018;-50
2021/01/09 05:18:02;;;;;;;58.05;32.85;;;;;;;;;;5033436;28;20033;-50
2021/01/09 05:20:28;;;;;;;54.40;30.27;;;;;;;;;;5035146;28;20592;-50
2021/01/09 05:22:55;;;;;;;58.38;31.95;;;;;;;;;;5035644;28;20385;-49
2021/01/09 05:25:25;;;;;;;50.05;27.73;;;;;;;;;;5034889;28;20439;-50
2021/01/09 05:27:55;;;;;;;47.03;26.38;;;;;;;;;;5034954;28;20436;-50
2021/01/09 05:30:22;;;;;;;47.17;27.45;;;;;;;;;;5034755;28;20106;-50
2021/01/09 05:32:48;;;;;;;77.72;40.25;;;;;;;;;;5035181;28;20120;-50
2021/01/09 05:35:14;;;;;;;77.03;40.47;;;;;;;;;;5034421;28;20040;-50
2021/01/09 05:37:40;;;;;;;62.13;32.80;;;;;;;;;;5026013;28;20049;-50
2021/01/09 05:40:09;;;;;;;57.85;32.03;;;;;;;;;;5035113;28;20017;-49
2021/01/09 05:42:35;;;;;;;57.10;31.45;;;;;;;;;;5034819;28;20109;-49
2021/01/09 05:45:02;;;;;;;62.15;34.70;;;;;;;;;;5034854;28;20022;-49
2021/01/09 05:47:29;;;;;;;61.15;34.60;;;;;;;;;;5035013;28;20021;-49
2021/01/09 05:49:56;;;;;;;60.78;34.28;;;;;;;;;;5034860;28;20466;-50
2021/01/09 05:52:25;;;;;;;72.10;39.55;;;;;;;;;;5035022;28;20030;-49
2021/01/09 05:54:57;;;;;;;59.85;35.00;;;;;;;;;;5034581;28;20022;-50
2021/01/09 05:57:28;;;;;;;64.30;37.28;;;;;;;;;;5034488;28;20053;-49
2021/01/09 05:59:56;;;;;;;64.60;36.35;;;;;;;;;;5034501;28;20460;-49
2021/01/09 06:02:24;;;;;;;64.95;36.15;;;;;;;;;;5034764;28;20362;-49
2021/01/09 06:04:51;;;;;;;63.42;35.72;;;;;;;;;;5033656;28;20032;-49
2021/01/09 06:07:21;;;;;;;65.45;36.85;;;;;;;;;;5029938;28;20402;-50
2021/01/09 06:10:06;;;;;;;65.05;36.55;;;;;;;;;;5027597;28;20163;-50
2021/01/09 06:12:35;;;;;;;68.60;37.38;;;;;;;;;;5034345;28;20040;-49
2021/01/09 06:15:03;;;;;;;84.13;43.85;;;;;;;;;;5034193;28;20017;-49
2021/01/09 06:17:29;;;;;;;77.40;41.75;;;;;;;;;;5031702;28;20045;-49
2021/01/09 06:19:55;;;;;;;85.88;47.10;;;;;;;;;;5034412;28;20025;-50
2021/01/09 06:22:21;;;;;;;82.65;42.80;;;;;;;;;;5034055;28;20477;-50
2021/01/09 06:24:48;;;;;;;65.97;36.80;;;;;;;;;;5034174;28;20160;-50
2021/01/09 06:27:18;;;;;;;63.70;36.28;;;;;;;;;;5033744;28;20048;-49
2021/01/09 06:29:47;;;;;;;66.20;38.08;;;;;;;;;;5032910;28;20135;-49
2021/01/09 06:32:15;;;;;;;65.07;38.47;;;;;;;;;;5033850;28;20057;-49
2021/01/09 06:34:42;;;;;;;63.33;37.10;;;;;;;;;;5034028;28;20030;-50
2021/01/09 06:37:08;;;;;;;90.30;51.08;;;;;;;;;;5032629;28;20057;-49
2021/01/09 06:39:35;;;;;;;90.60;50.45;;;;;;;;;;5033841;28;20028;-49
2021/01/09 06:42:04;;;;;;;76.57;43.35;;;;;;;;;;5033872;28;20025;-49
2021/01/09 06:44:31;;;;;;;80.35;45.03;;;;;;;;;;5033667;28;20532;-50
2021/01/09 06:46:57;;;;;;;62.53;36.13;;;;;;;;;;5033337;28;20072;-50
2021/01/09 06:49:25;;;;;;;56.08;32.05;;;;;;;;;;5033633;28;20037;-50
2021/01/09 06:51:55;;;;;;;62.58;36.05;;;;;;;;;;5033554;28;20539;-50
2021/01/09 06:54:28;;;;;;;66.40;38.28;;;;;;;;;;5033361;28;20121;-49
2021/01/09 06:57:03;;;;;;;72.90;42.05;;;;;;;;;;5033340;28;20036;-50
2021/01/09 06:59:29;;;;;;;62.15;36.50;;;;;;;;;;5028523;28;20108;-49
2021/01/09 07:02:15;;;;;;;65.13;38.45;;;;;;;;;;5024419;28;20025;-49
2021/01/09 07:04:54;;;;;;;61.42;37.28;;;;;;;;;;5026391;28;20053;-49
2021/01/09 07:07:30;;;;;;;80.43;47.05;;;;;;;;;;5031435;28;20565;-48
2021/01/09 07:09:59;;;;;;;76.82;44.00;;;;;;;;;;5032407;28;20021;-48
2021/01/09 07:12:28;;;;;;;65.40;36.08;;;;;;;;;;5032884;28;20030;-50
2021/01/09 07:14:57;;;;;;;86.03;45.42;;;;;;;;;;5031826;28;20021;-52
2021/01/09 07:17:27;;;;;;;76.80;40.65;;;;;;;;;;5032020;28;20120;-50
2021/01/09 07:19:54;;;;;;;80.90;44.17;;;;;;;;;;5032859;28;20018;-53
2021/01/09 07:22:20;;;;;;;145.70;71.53;;;;;;;;;;5032719;28;20025;-51
2021/01/09 07:24:48;;;;;;;191.30;85.95;;;;;;;;;;5032551;28;20049;-48
2021/01/09 07:27:18;;;;;;;217.98;108.57;;;;;;;;;;5032868;28;20052;-52
2021/01/09 07:29:44;;;;;;;172.25;91.18;;;;;;;;;;5032711;28;20057;-55
2021/01/09 07:32:10;;;;;;;157.77;83.03;;;;;;;;;;5032511;28;20022;-54
2021/01/09 07:34:37;;;;;;;119.13;66.22;;;;;;;;;;5032489;28;20026;-50
2021/01/09 07:37:03;;;;;;;86.03;50.58;;;;;;;;;;5032336;28;20069;-50
2021/01/09 07:39:29;;;;;;;92.00;50.45;;;;;;;;;;5032533;28;20025;-49
2021/01/09 07:41:56;;;;;;;113.40;64.35;;;;;;;;;;5032103;28;20070;-50
2021/01/09 07:44:23;;;;;;;86.68;49.85;;;;;;;;;;5032428;28;20024;-50
2021/01/09 07:46:56;;;;;;;113.90;62.78;;;;;;;;;;5030471;28;20017;-49
2021/01/09 07:49:36;;;;;;;108.38;57.53;;;;;;;;;;5032479;28;20022;-50
2021/01/09 07:52:06;;;;;;;90.97;51.28;;;;;;;;;;5032258;28;20021;-49
2021/01/09 07:54:44;;;;;;;95.10;52.70;;;;;;;;;;5032332;28;20100;-48
2021/01/09 07:57:13;;;;;;;152.93;80.95;;;;;;;;;;5031861;28;21297;-50
2021/01/09 07:59:39;;;;;;;188.32;99.93;;;;;;;;;;5032103;28;20021;-50
2021/01/09 08:02:06;;;;;;;130.82;72.30;;;;;;;;;;5031578;28;20112;-49
2021/01/09 08:04:32;;;;;;;119.60;66.10;;;;;;;;;;5032066;28;20125;-49
2021/01/09 08:06:58;;;;;;;88.03;51.40;;;;;;;;;;5027446;28;20057;-49
2021/01/09 08:09:27;;;;;;;94.97;52.17;;;;;;;;;;5035993;28;20030;-50
2021/01/09 08:11:53;;;;;;;166.85;84.72;;;;;;;;;;5022651;28;20021;-50
2021/01/09 08:14:19;;;;;;;161.10;86.28;;;;;;;;;;5032109;28;20025;-50
2021/01/09 08:16:46;;;;;;;117.07;63.92;;;;;;;;;;5031296;28;20057;-50
2021/01/09 08:19:15;;;;;;;104.18;59.58;;;;;;;;;;5031428;28;20108;-48
2021/01/09 08:21:41;;;;;;;82.13;46.42;;;;;;;;;;5033632;28;20469;-48
2021/01/09 08:24:08;;;;;;;86.28;50.53;;;;;;;;;;5031935;28;20032;-50
2021/01/09 08:26:34;;;;;;;80.15;46.60;;;;;;;;;;5042712;28;20025;-50
2021/01/09 08:29:00;;;;;;;71.80;42.50;;;;;;;;;;5031595;28;20836;-50
2021/01/09 08:31:26;;;;;;;98.10;55.25;;;;;;;;;;5032040;28;20040;-50
2021/01/09 08:33:52;;;;;;;77.32;45.22;;;;;;;;;;5031496;28;20044;-49
2021/01/09 08:36:21;;;;;;;95.78;50.72;;;;;;;;;;5032084;28;20026;-50
2021/01/09 08:38:49;;;;;;;85.90;46.45;;;;;;;;;;5029729;28;20537;-50
2021/01/09 08:41:15;;;;;;;103.05;56.85;;;;;;;;;;5032046;28;20030;-50
2021/01/09 08:43:41;;;;;;;117.22;65.22;;;;;;;;;;5031638;28;20108;-50
2021/01/09 08:46:12;;;;;;;117.53;70.13;;;;;;;;;;5027619;28;20026;-50
2021/01/09 08:48:38;;;;;;;72.28;44.38;;;;;;;;;;5025714;28;20018;-50
2021/01/09 08:51:04;;;;;;;97.80;59.55;;;;;;;;;;5031975;28;20032;-50
2021/01/09 08:53:51;;;;;;;84.95;51.67;;;;;;;;;;5028841;28;20029;-49
2021/01/09 08:56:19;;;;;;;70.40;43.83;;;;;;;;;;5026291;28;20425;-48
2021/01/09 08:58:46;;;;;;;97.95;56.95;;;;;;;;;;5032188;28;20037;-48
2021/01/09 09:01:13;;;;;;;88.13;49.25;;;;;;;;;;5031393;28;20017;-48
2021/01/09 09:03:48;;;;;;;80.18;46.50;;;;;;;;;;5026078;28;20033;-49
2021/01/09 09:06:15;;;;;;;83.55;52.13;;;;;;;;;;5030323;28;20105;-48
2021/01/09 09:08:42;;;;;;;60.33;37.53;;;;;;;;;;5023711;28;20030;-50
2021/01/09 09:11:08;;;;;;;59.00;35.25;;;;;;;;;;5024700;28;20045;-49
2021/01/09 09:13:34;;;;;;;62.97;39.63;;;;;;;;;;5021929;28;20025;-53
2021/01/09 09:16:15;;;;;;;81.47;49.83;;;;;;;;;;5016047;28;20030;-49
2021/01/09 09:18:41;;;;;;;80.30;48.00;;;;;;;;;;5017047;28;20812;-48
2021/01/09 09:21:09;;;;;;;153.85;81.32;;;;;;;;;;5029899;28;20045;-48
2021/01/09 09:23:35;;;;;;;115.05;61.70;;;;;;;;;;5034478;28;20021;-50
2021/01/09 09:26:02;;;;;;;83.72;53.22;;;;;;;;;;5033244;28;20036;-50
2021/01/09 09:28:28;;;;;;;78.43;48.78;;;;;;;;;;5034404;28;20401;-49
2021/01/09 09:30:55;;;;;;;84.97;50.35;;;;;;;;;;5035083;28;20179;-50
2021/01/09 09:33:21;;;;;;;136.05;77.10;;;;;;;;;;5034691;28;20027;-49
2021/01/09 09:35:47;;;;;;;111.28;65.68;;;;;;;;;;5034489;28;20359;-49
2021/01/09 09:38:13;;;;;;;103.43;58.28;;;;;;;;;;5034345;28;20040;-50
2021/01/09 09:40:40;;;;;;;103.82;55.70;;;;;;;;;;5034528;28;20101;-49
2021/01/09 09:43:19;;;;;;;62.80;35.42;;;;;;;;;;5034278;28;20088;-49
2021/01/09 09:45:58;;;;;;;54.00;32.45;;;;;;;;;;5031236;28;20022;-49
2021/01/09 09:48:31;;;;;;;61.33;36.13;;;;;;;;;;5017795;28;20037;-50
2021/01/09 09:51:15;;;;;;;81.97;46.78;;;;;;;;;;5014489;28;20022;-50
2021/01/09 09:53:50;;;;;;;76.38;44.90;;;;;;;;;;5020036;28;20516;-50
2021/01/09 09:56:25;;;;;;;77.97;46.00;;;;;;;;;;5015840;28;20040;-47
2021/01/09 09:59:01;;;;;;;68.30;40.88;;;;;;;;;;5017917;28;20037;-48
2021/01/09 10:01:29;;;;;;;74.95;46.83;;;;;;;;;;5017279;28;20351;-48
2021/01/09 10:03:55;;;;;;;82.50;50.17;;;;;;;;;;5015072;28;20478;-47
2021/01/09 10:06:24;;;;;;;86.82;50.20;;;;;;;;;;5018788;28;20105;-48
2021/01/09 10:08:50;;;;;;;86.07;49.53;;;;;;;;;;5018244;28;20117;-48
2021/01/09 10:11:16;;;;;;;98.93;51.20;;;;;;;;;;5016275;28;20065;-47
2021/01/09 10:13:43;;;;;;;102.43;64.75;;;;;;;;;;5014783;28;20450;-48
2021/01/09 10:16:09;;;;;;;62.25;37.75;;;;;;;;;;5019181;28;20026;-47
2021/01/09 10:18:35;;;;;;;63.40;40.03;;;;;;;;;;5029442;28;20037;-49
2021/01/09 10:21:01;;;;;;;65.05;39.42;;;;;;;;;;5012909;28;20358;-49
2021/01/09 10:23:28;;;;;;;85.35;52.75;;;;;;;;;;5020249;28;20032;-49
2021/01/09 10:25:55;;;;;;;111.25;70.35;;;;;;;;;;5023041;28;20021;-49
2021/01/09 10:28:22;;;;;;;82.95;47.90;;;;;;;;;;5024661;28;20153;-49
2021/01/09 10:30:48;;;;;;;87.15;49.60;;;;;;;;;;5024454;28;20075;-49
2021/01/09 10:33:15;;;;;;;81.75;46.78;;;;;;;;;;5018579;28;20071;-50
2021/01/09 10:35:44;;;;;;;90.18;48.55;;;;;;;;;;5030899;28;20084;-48
2021/01/09 10:38:10;;;;;;;85.97;46.83;;;;;;;;;;5025356;28;20112;-50
2021/01/09 10:40:36;;;;;;;174.07;92.82;;;;;;;;;;5032692;28;20611;-49
2021/01/09 10:43:02;;;;;;;150.30;75.80;;;;;;;;;;5031974;28;20035;-50
2021/01/09 10:45:28;;;;;;;115.25;62.28;;;;;;;;;;5032399;28;20021;-50
2021/01/09 10:47:54;;;;;;;103.18;54.60;;;;;;;;;;5033465;28;20029;-49
2021/01/09 10:50:20;;;;;;;115.72;61.22;;;;;;;;;;5033098;28;20026;-50
2021/01/09 10:52:46;;;;;;;91.22;52.17;;;;;;;;;;5033330;28;20537;-50
2021/01/09 10:55:12;;;;;;;96.50;56.45;;;;;;;;;;5032847;28;20059;-49
2021/01/09 10:57:39;;;;;;;99.88;59.58;;;;;;;;;;5032933;28;20389;-49
2021/01/09 11:00:07;;;;;;;87.45;51.25;;;;;;;;;;5032989;28;20373;-50
2021/01/09 11:02:33;;;;;;;96.93;55.00;;;;;;;;;;5033240;28;20029;-49
2021/01/09 11:04:59;;;;;;;100.00;58.05;;;;;;;;;;5033195;28;20025;-48
2021/01/09 11:07:25;;;;;;;99.32;57.10;;;;;;;;;;5033004;28;20035;-52
2021/01/09 11:09:51;;;;;;;101.00;57.13;;;;;;;;;;5033028;28;20028;-51
2021/01/09 11:12:17;;;;;;;81.93;49.38;;;;;;;;;;5033024;28;20038;-51
2021/01/09 11:14:43;;;;;;;79.40;48.50;;;;;;;;;;5032379;28;20091;-51
2021/01/09 11:17:09;;;;;;;87.32;51.42;;;;;;;;;;5028196;28;20358;-50
2021/01/09 11:19:35;;;;;;;73.20;44.90;;;;;;;;;;5032844;28;20389;-50
2021/01/09 11:22:01;;;;;;;76.18;45.78;;;;;;;;;;5032786;28;20021;-50
2021/01/09 11:24:28;;;;;;;105.53;63.75;;;;;;;;;;5032643;28;20496;-49
2021/01/09 11:26:57;;;;;;;98.63;56.78;;;;;;;;;;5032765;28;20385;-50
2021/01/09 11:29:23;;;;;;;91.15;51.95;;;;;;;;;;5020167;28;20041;-50
2021/01/09 11:31:49;;;;;;;74.18;44.38;;;;;;;;;;5032803;28;20021;-50
2021/01/09 11:34:15;;;;;;;76.07;44.53;;;;;;;;;;5032447;28;20063;-50
2021/01/09 11:36:44;;;;;;;75.80;44.88;;;;;;;;;;5032221;28;20017;-50
2021/01/09 11:39:10;;;;;;;68.97;40.83;;;;;;;;;;5032444;28;20183;-49
2021/01/09 11:41:36;;;;;;;71.55;43.30;;;;;;;;;;5030000;28;20041;-48
2021/01/09 11:44:02;;;;;;;64.60;39.25;;;;;;;;;;5022591;28;20036;-50
2021/01/09 11:46:28;;;;;;;72.22;46.63;;;;;;;;;;5032490;28;20079;-49
2021/01/09 11:48:54;;;;;;;66.28;40.00;;;;;;;;;;5032569;28;20067;-50
2021/01/09 11:51:24;;;;;;;85.00;50.65;;;;;;;;;;5032489;28;20029;-50
2021/01/09 11:53:50;;;;;;;69.63;43.20;;;;;;;;;;5032505;28;20029;-50
2021/01/09 11:56:23;;;;;;;61.30;38.40;;;;;;;;;;5032682;28;20550;-50
2021/01/09 11:58:49;;;;;;;59.53;34.90;;;;;;;;;;5031979;28;20048;-50
2021/01/09 12:01:15;;;;;;;73.50;42.35;;;;;;;;;;5032496;28;20154;-50
2021/01/09 12:03:41;;;;;;;73.88;44.78;;;;;;;;;;5031209;28;20032;-50
2021/01/09 12:06:07;;;;;;;63.15;37.75;;;;;;;;;;5032433;28;20049;-50
2021/01/09 12:08:34;;;;;;;61.17;37.22;;;;;;;;;;5032217;28;20009;-50
2021/01/09 12:11:00;;;;;;;51.45;31.48;;;;;;;;;;5032447;28;20102;-50
2021/01/09 12:13:26;;;;;;;57.13;34.75;;;;;;;;;;5031908;28;20029;-50
2021/01/09 12:15:52;;;;;;;60.65;36.33;;;;;;;;;;5032594;28;20528;-50
2021/01/09 12:18:20;;;;;;;63.60;37.53;;;;;;;;;;5032244;28;20436;-50
2021/01/09 12:20:49;;;;;;;51.63;32.38;;;;;;;;;;5031996;28;20028;-50
2021/01/09 12:23:16;;;;;;;58.95;35.05;;;;;;;;;;5031470;28;20029;-50
2021/01/09 12:25:42;;;;;;;61.03;38.60;;;;;;;;;;5031298;28;20076;-50
2021/01/09 12:28:08;;;;;;;60.00;37.40;;;;;;;;;;5028354;28;20045;-47
2021/01/09 12:30:35;;;;;;;69.25;43.47;;;;;;;;;;5028207;28;20041;-48
2021/01/09 12:33:01;;;;;;;62.38;37.00;;;;;;;;;;5026923;28;20384;-51
2021/01/09 12:35:27;;;;;;;86.18;50.13;;;;;;;;;;5027871;28;20056;-50
2021/01/09 12:37:55;;;;;;;83.53;47.45;;;;;;;;;;5025308;28;20400;-50
2021/01/09 12:40:22;;;;;;;79.82;46.15;;;;;;;;;;5020022;28;20392;-51
2021/01/09 12:42:49;;;;;;;90.53;52.08;;;;;;;;;;5026723;28;20025;-50
2021/01/09 12:45:15;;;;;;;85.70;49.83;;;;;;;;;;5030704;28;20092;-50
2021/01/09 12:47:41;;;;;;;79.88;45.60;;;;;;;;;;5027015;28;20473;-48
2021/01/09 12:50:08;;;;;;;96.70;55.63;;;;;;;;;;5030728;28;20048;-48
2021/01/09 12:52:34;;;;;;;119.93;66.50;;;;;;;;;;5022744;28;20022;-48
2021/01/09 12:55:00;;;;;;;86.78;50.28;;;;;;;;;;5031077;28;20026;-52
2021/01/09 12:57:26;;;;;;;75.50;43.42;;;;;;;;;;5032899;28;20575;-49
2021/01/09 12:59:52;;;;;;;71.15;41.15;;;;;;;;;;5028398;28;20405;-49
2021/01/09 13:02:18;;;;;;;73.65;43.13;;;;;;;;;;5028608;28;20090;-48
2021/01/09 13:04:44;;;;;;;79.13;46.88;;;;;;;;;;5031004;28;20094;-51
2021/01/09 13:07:10;;;;;;;93.13;53.70;;;;;;;;;;5030929;28;20026;-49
2021/01/09 13:09:36;;;;;;;83.13;49.47;;;;;;;;;;5025882;28;20084;-49
2021/01/09 13:12:04;;;;;;;80.00;46.03;;;;;;;;;;5028974;28;20036;-49
2021/01/09 13:14:30;;;;;;;80.28;46.70;;;;;;;;;;5024673;28;20406;-50
2021/01/09 13:16:56;;;;;;;106.22;60.40;;;;;;;;;;5028163;28;20037;-49
2021/01/09 13:19:23;;;;;;;73.15;42.95;;;;;;;;;;5029823;28;20037;-49
2021/01/09 13:21:53;;;;;;;59.45;34.00;;;;;;;;;;5030326;28;20032;-49
2021/01/09 13:24:19;;;;;;;67.43;39.13;;;;;;;;;;5028219;28;20484;-48
2021/01/09 13:26:45;;;;;;;102.22;56.05;;;;;;;;;;5030894;28;20029;-49
2021/01/09 13:29:12;;;;;;;92.45;53.78;;;;;;;;;;5044941;28;20052;-49
2021/01/09 13:31:42;;;;;;;79.93;49.20;;;;;;;;;;5030112;28;20025;-49
2021/01/09 13:34:08;;;;;;;73.80;43.60;;;;;;;;;;5032750;28;20038;-50
2021/01/09 13:36:35;;;;;;;80.05;46.95;;;;;;;;;;5037139;28;20032;-49
2021/01/09 13:39:01;;;;;;;76.43;45.63;;;;;;;;;;5036583;28;20064;-50
2021/01/09 13:41:28;;;;;;;69.53;40.63;;;;;;;;;;5034437;28;20022;-49
2021/01/09 13:43:54;;;;;;;78.10;43.78;;;;;;;;;;5027362;28;20079;-49
2021/01/09 13:46:29;;;;;;;89.22;51.45;;;;;;;;;;5030369;28;20030;-49
2021/01/09 13:48:56;;;;;;;74.32;43.85;;;;;;;;;;5035709;28;20053;-49
2021/01/09 13:51:26;;;;;;;68.97;39.83;;;;;;;;;;5032984;28;20025;-50
2021/01/09 13:53:52;;;;;;;74.68;43.85;;;;;;;;;;5032464;28;20451;-49
2021/01/09 13:56:19;;;;;;;63.70;38.17;;;;;;;;;;5033600;28;20060;-48
2021/01/09 13:58:48;;;;;;;70.03;39.95;;;;;;;;;;5032247;28;20046;-48
2021/01/09 14:01:23;;;;;;;71.45;40.67;;;;;;;;;;5027538;28;20069;-48
2021/01/09 14:03:49;;;;;;;72.07;42.17;;;;;;;;;;5029546;28;20030;-51
2021/01/09 14:06:17;;;;;;;81.03;45.45;;;;;;;;;;5031326;28;20111;-49
2021/01/09 14:08:44;;;;;;;79.38;45.95;;;;;;;;;;5033102;28;20080;-48
2021/01/09 14:11:10;;;;;;;76.20;43.63;;;;;;;;;;5033612;28;20053;-51
2021/01/09 14:13:36;;;;;;;140.85;71.20;;;;;;;;;;5022357;28;20042;-49
2021/01/09 14:16:02;;;;;;;235.27;111.38;;;;;;;;;;5022084;28;20104;-49